sensor_id;sensor_type;location;lat;lon;timestamp;P1;durP1;ratioP1;P2;durP2;ratioP2
69005;SDS011;56061;51.748;19.620;2022-09-17T00:01:19;6.80;;;3.10;;
69005;SDS011;56061;51.748;19.620;2022-09-17T00:03:52;6.00;;;2.60;;
69005;SDS011;56061;51.748;19.620;2022-09-17T00:06:22;6.50;;;2.50;;
69005;SDS011;56061;51.748;19.620;2022-09-17T00:08:51;8.00;;;3.00;;
69005;SDS011;56061;51.748;19.620;2022-09-17T00:11:25;6.20;;;3.40;;
69005;SDS011;56061;51.748;19.620;2022-09-17T00:13:56;6.10;;;2.90;;
69005;SDS011;56061;51.748;19.620;2022-09-17T00:16:31;5.90;;;3.10;;
69005;SDS011;56061;51.748;19.620;2022-09-17T00:19:00;7.10;;;3.30;;
69005;SDS011;56061;51.748;19.620;2022-09-17T00:21:28;6.60;;;2.90;;
69005;SDS011;56061;51.748;19.620;2022-09-17T00:23:59;6.10;;;2.80;;
69005;SDS011;56061;51.748;19.620;2022-09-17T00:26:29;11.30;;;3.00;;
69005;SDS011;56061;51.748;19.620;2022-09-17T00:28:57;6.30;;;2.80;;
69005;SDS011;56061;51.748;19.620;2022-09-17T00:31:26;7.50;;;3.20;;
69005;SDS011;56061;51.748;19.620;2022-09-17T00:33:53;5.90;;;2.90;;
69005;SDS011;56061;51.748;19.620;2022-09-17T00:36:20;7.10;;;2.90;;
69005;SDS011;56061;51.748;19.620;2022-09-17T00:38:50;5.30;;;2.60;;
69005;SDS011;56061;51.748;19.620;2022-09-17T00:41:18;5.90;;;2.70;;
69005;SDS011;56061;51.748;19.620;2022-09-17T00:43:51;6.00;;;3.20;;
69005;SDS011;56061;51.748;19.620;2022-09-17T00:46:24;10.10;;;3.10;;
69005;SDS011;56061;51.748;19.620;2022-09-17T00:48:59;5.70;;;2.50;;
69005;SDS011;56061;51.748;19.620;2022-09-17T00:51:35;6.90;;;2.50;;
69005;SDS011;56061;51.748;19.620;2022-09-17T00:54:06;5.60;;;2.50;;
69005;SDS011;56061;51.748;19.620;2022-09-17T00:56:36;6.40;;;2.70;;
69005;SDS011;56061;51.748;19.620;2022-09-17T00:59:05;6.20;;;2.90;;
69005;SDS011;56061;51.748;19.620;2022-09-17T01:01:33;5.40;;;2.60;;
69005;SDS011;56061;51.748;19.620;2022-09-17T01:04:00;6.00;;;2.40;;
69005;SDS011;56061;51.748;19.620;2022-09-17T01:06:34;5.20;;;2.80;;
69005;SDS011;56061;51.748;19.620;2022-09-17T01:15:20;5.20;;;2.10;;
69005;SDS011;56061;51.748;19.620;2022-09-17T01:18:08;5.60;;;2.60;;
69005;SDS011;56061;51.748;19.620;2022-09-17T01:21:12;6.80;;;2.70;;
69005;SDS011;56061;51.748;19.620;2022-09-17T01:24:20;5.60;;;2.60;;
69005;SDS011;56061;51.748;19.620;2022-09-17T01:30:19;5.90;;;2.90;;
69005;SDS011;56061;51.748;19.620;2022-09-17T01:36:09;5.60;;;2.60;;
69005;SDS011;56061;51.748;19.620;2022-09-17T01:38:53;5.70;;;2.70;;
69005;SDS011;56061;51.748;19.620;2022-09-17T01:41:48;5.30;;;2.70;;
69005;SDS011;56061;51.748;19.620;2022-09-17T01:44:28;5.60;;;2.60;;
69005;SDS011;56061;51.748;19.620;2022-09-17T01:47:27;6.40;;;2.40;;
69005;SDS011;56061;51.748;19.620;2022-09-17T01:50:04;7.00;;;2.70;;
69005;SDS011;56061;51.748;19.620;2022-09-17T01:52:36;7.40;;;2.70;;
69005;SDS011;56061;51.748;19.620;2022-09-17T01:55:09;6.10;;;2.50;;
69005;SDS011;56061;51.748;19.620;2022-09-17T01:57:47;5.50;;;2.30;;
69005;SDS011;56061;51.748;19.620;2022-09-17T02:00:19;4.60;;;2.10;;
69005;SDS011;56061;51.748;19.620;2022-09-17T02:08:44;5.80;;;2.50;;
69005;SDS011;56061;51.748;19.620;2022-09-17T02:11:25;7.00;;;2.30;;
69005;SDS011;56061;51.748;19.620;2022-09-17T02:14:09;5.40;;;2.20;;
69005;SDS011;56061;51.748;19.620;2022-09-17T02:16:45;5.60;;;2.40;;
69005;SDS011;56061;51.748;19.620;2022-09-17T02:22:20;4.60;;;2.30;;
69005;SDS011;56061;51.748;19.620;2022-09-17T02:25:05;5.20;;;2.40;;
69005;SDS011;56061;51.748;19.620;2022-09-17T02:30:33;6.10;;;2.60;;
69005;SDS011;56061;51.748;19.620;2022-09-17T02:33:01;4.60;;;2.20;;
69005;SDS011;56061;51.748;19.620;2022-09-17T02:35:32;6.20;;;2.40;;
69005;SDS011;56061;51.748;19.620;2022-09-17T02:37:59;4.40;;;2.10;;
69005;SDS011;56061;51.748;19.620;2022-09-17T02:40:28;6.40;;;2.70;;
69005;SDS011;56061;51.748;19.620;2022-09-17T02:43:12;6.20;;;2.50;;
69005;SDS011;56061;51.748;19.620;2022-09-17T02:51:50;5.20;;;2.40;;
69005;SDS011;56061;51.748;19.620;2022-09-17T02:54:39;6.50;;;2.60;;
69005;SDS011;56061;51.748;19.620;2022-09-17T02:57:29;4.80;;;2.30;;
69005;SDS011;56061;51.748;19.620;2022-09-17T03:00:13;4.80;;;2.30;;
69005;SDS011;56061;51.748;19.620;2022-09-17T03:02:49;5.00;;;2.40;;
69005;SDS011;56061;51.748;19.620;2022-09-17T03:05:23;5.20;;;2.40;;
69005;SDS011;56061;51.748;19.620;2022-09-17T03:07:54;5.30;;;2.70;;
69005;SDS011;56061;51.748;19.620;2022-09-17T03:10:22;6.50;;;3.20;;
69005;SDS011;56061;51.748;19.620;2022-09-17T03:12:53;5.90;;;3.00;;
69005;SDS011;56061;51.748;19.620;2022-09-17T03:15:19;5.70;;;2.50;;
69005;SDS011;56061;51.748;19.620;2022-09-17T03:17:46;8.30;;;2.90;;
69005;SDS011;56061;51.748;19.620;2022-09-17T03:20:18;6.10;;;2.20;;
69005;SDS011;56061;51.748;19.620;2022-09-17T03:22:45;5.80;;;2.40;;
69005;SDS011;56061;51.748;19.620;2022-09-17T03:25:12;5.40;;;2.50;;
69005;SDS011;56061;51.748;19.620;2022-09-17T03:27:39;6.80;;;3.10;;
69005;SDS011;56061;51.748;19.620;2022-09-17T03:30:06;5.80;;;2.50;;
69005;SDS011;56061;51.748;19.620;2022-09-17T03:32:32;6.10;;;2.40;;
69005;SDS011;56061;51.748;19.620;2022-09-17T03:34:59;6.30;;;2.50;;
69005;SDS011;56061;51.748;19.620;2022-09-17T03:37:25;5.80;;;2.80;;
69005;SDS011;56061;51.748;19.620;2022-09-17T03:39:57;5.80;;;2.80;;
69005;SDS011;56061;51.748;19.620;2022-09-17T03:42:24;4.40;;;2.20;;
69005;SDS011;56061;51.748;19.620;2022-09-17T03:44:51;4.90;;;2.40;;
69005;SDS011;56061;51.748;19.620;2022-09-17T03:47:17;5.50;;;2.40;;
69005;SDS011;56061;51.748;19.620;2022-09-17T03:49:44;7.00;;;2.60;;
69005;SDS011;56061;51.748;19.620;2022-09-17T03:52:10;5.20;;;2.40;;
69005;SDS011;56061;51.748;19.620;2022-09-17T03:54:37;7.20;;;2.30;;
69005;SDS011;56061;51.748;19.620;2022-09-17T03:57:03;6.60;;;2.20;;
69005;SDS011;56061;51.748;19.620;2022-09-17T03:59:30;4.80;;;2.20;;
69005;SDS011;56061;51.748;19.620;2022-09-17T04:01:57;7.60;;;3.10;;
69005;SDS011;56061;51.748;19.620;2022-09-17T04:04:23;5.50;;;2.50;;
69005;SDS011;56061;51.748;19.620;2022-09-17T04:06:50;5.70;;;2.60;;
69005;SDS011;56061;51.748;19.620;2022-09-17T04:09:17;5.50;;;2.30;;
69005;SDS011;56061;51.748;19.620;2022-09-17T04:11:43;7.20;;;2.60;;
69005;SDS011;56061;51.748;19.620;2022-09-17T04:14:10;5.20;;;2.30;;
69005;SDS011;56061;51.748;19.620;2022-09-17T04:16:36;5.60;;;2.20;;
69005;SDS011;56061;51.748;19.620;2022-09-17T04:19:03;5.70;;;2.40;;
69005;SDS011;56061;51.748;19.620;2022-09-17T04:21:29;5.70;;;2.20;;
69005;SDS011;56061;51.748;19.620;2022-09-17T04:23:56;4.60;;;1.90;;
69005;SDS011;56061;51.748;19.620;2022-09-17T04:26:23;6.50;;;2.80;;
69005;SDS011;56061;51.748;19.620;2022-09-17T04:28:49;5.70;;;2.70;;
69005;SDS011;56061;51.748;19.620;2022-09-17T04:31:16;4.50;;;2.20;;
69005;SDS011;56061;51.748;19.620;2022-09-17T04:33:42;6.30;;;2.30;;
69005;SDS011;56061;51.748;19.620;2022-09-17T04:36:09;4.80;;;2.00;;
69005;SDS011;56061;51.748;19.620;2022-09-17T04:38:35;5.30;;;2.40;;
69005;SDS011;56061;51.748;19.620;2022-09-17T04:41:05;4.60;;;2.20;;
69005;SDS011;56061;51.748;19.620;2022-09-17T04:43:33;4.70;;;2.10;;
69005;SDS011;56061;51.748;19.620;2022-09-17T04:46:00;6.00;;;2.40;;
69005;SDS011;56061;51.748;19.620;2022-09-17T04:48:26;5.20;;;2.10;;
69005;SDS011;56061;51.748;19.620;2022-09-17T04:50:53;6.20;;;2.30;;
69005;SDS011;56061;51.748;19.620;2022-09-17T04:53:19;6.10;;;2.20;;
69005;SDS011;56061;51.748;19.620;2022-09-17T04:55:46;5.90;;;2.00;;
69005;SDS011;56061;51.748;19.620;2022-09-17T04:58:13;5.30;;;2.20;;
69005;SDS011;56061;51.748;19.620;2022-09-17T05:00:39;6.00;;;2.30;;
69005;SDS011;56061;51.748;19.620;2022-09-17T05:03:07;12.90;;;3.10;;
69005;SDS011;56061;51.748;19.620;2022-09-17T05:05:34;6.40;;;2.00;;
69005;SDS011;56061;51.748;19.620;2022-09-17T05:08:00;6.00;;;1.90;;
69005;SDS011;56061;51.748;19.620;2022-09-17T05:10:28;4.30;;;1.90;;
69005;SDS011;56061;51.748;19.620;2022-09-17T05:12:55;4.20;;;1.50;;
69005;SDS011;56061;51.748;19.620;2022-09-17T05:15:23;4.90;;;1.90;;
69005;SDS011;56061;51.748;19.620;2022-09-17T05:17:51;4.10;;;1.60;;
69005;SDS011;56061;51.748;19.620;2022-09-17T05:20:18;5.70;;;2.00;;
69005;SDS011;56061;51.748;19.620;2022-09-17T05:22:47;4.40;;;1.70;;
69005;SDS011;56061;51.748;19.620;2022-09-17T05:25:18;5.10;;;2.00;;
69005;SDS011;56061;51.748;19.620;2022-09-17T05:27:53;3.30;;;1.50;;
69005;SDS011;56061;51.748;19.620;2022-09-17T05:30:20;4.10;;;1.50;;
69005;SDS011;56061;51.748;19.620;2022-09-17T05:32:47;4.70;;;1.80;;
69005;SDS011;56061;51.748;19.620;2022-09-17T05:35:14;4.50;;;2.00;;
69005;SDS011;56061;51.748;19.620;2022-09-17T05:37:41;6.30;;;1.80;;
69005;SDS011;56061;51.748;19.620;2022-09-17T05:40:08;5.50;;;1.80;;
69005;SDS011;56061;51.748;19.620;2022-09-17T05:42:35;3.50;;;1.80;;
69005;SDS011;56061;51.748;19.620;2022-09-17T05:45:02;5.00;;;1.40;;
69005;SDS011;56061;51.748;19.620;2022-09-17T05:47:30;4.50;;;1.70;;
69005;SDS011;56061;51.748;19.620;2022-09-17T05:49:57;3.50;;;1.60;;
69005;SDS011;56061;51.748;19.620;2022-09-17T05:52:27;4.90;;;2.00;;
69005;SDS011;56061;51.748;19.620;2022-09-17T05:54:55;6.80;;;2.00;;
69005;SDS011;56061;51.748;19.620;2022-09-17T05:57:22;5.60;;;2.50;;
69005;SDS011;56061;51.748;19.620;2022-09-17T05:59:49;5.40;;;1.90;;
69005;SDS011;56061;51.748;19.620;2022-09-17T06:02:15;4.10;;;1.90;;
69005;SDS011;56061;51.748;19.620;2022-09-17T06:04:42;4.70;;;1.60;;
69005;SDS011;56061;51.748;19.620;2022-09-17T06:07:08;5.00;;;1.60;;
69005;SDS011;56061;51.748;19.620;2022-09-17T06:09:35;4.40;;;2.00;;
69005;SDS011;56061;51.748;19.620;2022-09-17T06:12:06;4.70;;;2.10;;
69005;SDS011;56061;51.748;19.620;2022-09-17T06:14:33;6.30;;;2.50;;
69005;SDS011;56061;51.748;19.620;2022-09-17T06:17:00;6.90;;;2.30;;
69005;SDS011;56061;51.748;19.620;2022-09-17T06:19:27;4.50;;;1.90;;
69005;SDS011;56061;51.748;19.620;2022-09-17T06:21:54;5.30;;;1.70;;
69005;SDS011;56061;51.748;19.620;2022-09-17T06:24:20;3.70;;;1.80;;
69005;SDS011;56061;51.748;19.620;2022-09-17T06:26:47;7.70;;;1.80;;
69005;SDS011;56061;51.748;19.620;2022-09-17T06:29:14;5.20;;;2.10;;
69005;SDS011;56061;51.748;19.620;2022-09-17T06:31:41;4.30;;;2.00;;
69005;SDS011;56061;51.748;19.620;2022-09-17T06:34:10;13.70;;;2.90;;
69005;SDS011;56061;51.748;19.620;2022-09-17T06:36:37;6.60;;;3.30;;
69005;SDS011;56061;51.748;19.620;2022-09-17T06:39:04;6.50;;;3.00;;
69005;SDS011;56061;51.748;19.620;2022-09-17T06:41:31;6.60;;;2.50;;
69005;SDS011;56061;51.748;19.620;2022-09-17T06:43:58;5.30;;;2.40;;
69005;SDS011;56061;51.748;19.620;2022-09-17T06:46:25;5.10;;;2.00;;
69005;SDS011;56061;51.748;19.620;2022-09-17T06:48:51;5.30;;;2.80;;
69005;SDS011;56061;51.748;19.620;2022-09-17T06:51:18;9.10;;;3.00;;
69005;SDS011;56061;51.748;19.620;2022-09-17T06:53:45;90.20;;;62.60;;
69005;SDS011;56061;51.748;19.620;2022-09-17T06:56:11;35.70;;;25.50;;
69005;SDS011;56061;51.748;19.620;2022-09-17T06:58:38;10.40;;;6.10;;
69005;SDS011;56061;51.748;19.620;2022-09-17T07:01:10;4.90;;;2.70;;
69005;SDS011;56061;51.748;19.620;2022-09-17T07:03:38;7.60;;;2.80;;
69005;SDS011;56061;51.748;19.620;2022-09-17T07:06:08;6.20;;;2.60;;
69005;SDS011;56061;51.748;19.620;2022-09-17T07:08:36;5.90;;;2.10;;
69005;SDS011;56061;51.748;19.620;2022-09-17T07:11:03;4.40;;;2.30;;
69005;SDS011;56061;51.748;19.620;2022-09-17T07:13:30;7.10;;;2.50;;
69005;SDS011;56061;51.748;19.620;2022-09-17T07:15:59;5.50;;;2.60;;
69005;SDS011;56061;51.748;19.620;2022-09-17T07:18:27;5.20;;;2.70;;
69005;SDS011;56061;51.748;19.620;2022-09-17T07:20:58;6.70;;;3.00;;
69005;SDS011;56061;51.748;19.620;2022-09-17T07:23:28;6.00;;;3.10;;
69005;SDS011;56061;51.748;19.620;2022-09-17T07:25:58;8.30;;;3.30;;
69005;SDS011;56061;51.748;19.620;2022-09-17T07:28:27;6.20;;;3.40;;
69005;SDS011;56061;51.748;19.620;2022-09-17T07:30:55;7.10;;;3.30;;
69005;SDS011;56061;51.748;19.620;2022-09-17T07:33:25;9.30;;;3.50;;
69005;SDS011;56061;51.748;19.620;2022-09-17T07:35:58;8.10;;;3.30;;
69005;SDS011;56061;51.748;19.620;2022-09-17T07:38:27;6.30;;;2.70;;
69005;SDS011;56061;51.748;19.620;2022-09-17T07:41:00;7.30;;;2.80;;
69005;SDS011;56061;51.748;19.620;2022-09-17T07:43:30;5.90;;;2.60;;
69005;SDS011;56061;51.748;19.620;2022-09-17T07:46:00;8.80;;;2.90;;
69005;SDS011;56061;51.748;19.620;2022-09-17T07:48:29;5.80;;;2.70;;
69005;SDS011;56061;51.748;19.620;2022-09-17T07:50:56;9.20;;;3.80;;
69005;SDS011;56061;51.748;19.620;2022-09-17T07:53:24;20.00;;;4.40;;
69005;SDS011;56061;51.748;19.620;2022-09-17T07:55:53;9.80;;;3.00;;
69005;SDS011;56061;51.748;19.620;2022-09-17T07:58:27;7.70;;;3.40;;
69005;SDS011;56061;51.748;19.620;2022-09-17T08:01:09;6.70;;;2.90;;
69005;SDS011;56061;51.748;19.620;2022-09-17T08:03:38;5.50;;;2.90;;
69005;SDS011;56061;51.748;19.620;2022-09-17T08:06:10;14.40;;;5.60;;
69005;SDS011;56061;51.748;19.620;2022-09-17T08:08:39;8.40;;;4.30;;
69005;SDS011;56061;51.748;19.620;2022-09-17T08:11:14;7.00;;;3.50;;
69005;SDS011;56061;51.748;19.620;2022-09-17T08:14:03;6.00;;;2.90;;
69005;SDS011;56061;51.748;19.620;2022-09-17T08:16:29;6.30;;;2.90;;
69005;SDS011;56061;51.748;19.620;2022-09-17T08:18:56;7.60;;;5.10;;
69005;SDS011;56061;51.748;19.620;2022-09-17T08:21:23;7.50;;;3.20;;
69005;SDS011;56061;51.748;19.620;2022-09-17T08:23:50;6.80;;;3.60;;
69005;SDS011;56061;51.748;19.620;2022-09-17T08:26:19;62.70;;;7.00;;
69005;SDS011;56061;51.748;19.620;2022-09-17T08:28:50;8.70;;;3.50;;
69005;SDS011;56061;51.748;19.620;2022-09-17T08:31:20;8.50;;;3.80;;
69005;SDS011;56061;51.748;19.620;2022-09-17T08:33:49;6.80;;;2.80;;
69005;SDS011;56061;51.748;19.620;2022-09-17T08:36:17;6.80;;;3.00;;
69005;SDS011;56061;51.748;19.620;2022-09-17T08:38:46;5.40;;;2.60;;
69005;SDS011;56061;51.748;19.620;2022-09-17T08:44:38;3.80;;;2.30;;
69005;SDS011;56061;51.748;19.620;2022-09-17T08:47:33;7.80;;;3.40;;
69005;SDS011;56061;51.748;19.620;2022-09-17T08:50:12;5.20;;;2.90;;
69005;SDS011;56061;51.748;19.620;2022-09-17T08:55:55;7.30;;;3.20;;
69005;SDS011;56061;51.748;19.620;2022-09-17T09:01:23;5.60;;;2.70;;
69005;SDS011;56061;51.748;19.620;2022-09-17T09:07:25;5.10;;;2.50;;
69005;SDS011;56061;51.748;19.620;2022-09-17T09:12:51;5.50;;;2.60;;
69005;SDS011;56061;51.748;19.620;2022-09-17T09:15:41;7.40;;;3.00;;
69005;SDS011;56061;51.748;19.620;2022-09-17T09:18:21;5.20;;;2.50;;
69005;SDS011;56061;51.748;19.620;2022-09-17T09:20:52;3.90;;;2.20;;
69005;SDS011;56061;51.748;19.620;2022-09-17T09:23:42;6.70;;;2.40;;
69005;SDS011;56061;51.748;19.620;2022-09-17T09:26:19;5.50;;;2.30;;
69005;SDS011;56061;51.748;19.620;2022-09-17T09:29:46;5.70;;;2.00;;
69005;SDS011;56061;51.748;19.620;2022-09-17T09:32:39;3.70;;;2.10;;
69005;SDS011;56061;51.748;19.620;2022-09-17T09:35:25;8.50;;;2.90;;
69005;SDS011;56061;51.748;19.620;2022-09-17T09:38:09;7.50;;;3.40;;
69005;SDS011;56061;51.748;19.620;2022-09-17T09:40:45;7.80;;;3.50;;
69005;SDS011;56061;51.748;19.620;2022-09-17T09:43:21;5.00;;;2.20;;
69005;SDS011;56061;51.748;19.620;2022-09-17T09:49:33;4.10;;;1.80;;
69005;SDS011;56061;51.748;19.620;2022-09-17T09:52:33;5.90;;;2.60;;
69005;SDS011;56061;51.748;19.620;2022-09-17T09:58:33;4.40;;;2.30;;
69005;SDS011;56061;51.748;19.620;2022-09-17T10:01:09;4.00;;;1.70;;
69005;SDS011;56061;51.748;19.620;2022-09-17T10:03:41;4.00;;;1.90;;
69005;SDS011;56061;51.748;19.620;2022-09-17T10:06:14;3.30;;;1.70;;
69005;SDS011;56061;51.748;19.620;2022-09-17T10:11:31;4.00;;;2.00;;
69005;SDS011;56061;51.748;19.620;2022-09-17T10:14:26;4.20;;;2.00;;
69005;SDS011;56061;51.748;19.620;2022-09-17T10:17:18;6.00;;;2.40;;
69005;SDS011;56061;51.748;19.620;2022-09-17T10:22:42;3.80;;;1.70;;
69005;SDS011;56061;51.748;19.620;2022-09-17T10:25:31;4.00;;;2.30;;
69005;SDS011;56061;51.748;19.620;2022-09-17T10:28:01;4.90;;;1.90;;
69005;SDS011;56061;51.748;19.620;2022-09-17T10:30:31;4.40;;;2.10;;
69005;SDS011;56061;51.748;19.620;2022-09-17T10:33:49;4.90;;;2.20;;
69005;SDS011;56061;51.748;19.620;2022-09-17T10:39:35;4.80;;;2.10;;
69005;SDS011;56061;51.748;19.620;2022-09-17T10:42:17;4.60;;;2.30;;
69005;SDS011;56061;51.748;19.620;2022-09-17T10:47:21;5.20;;;2.60;;
69005;SDS011;56061;51.748;19.620;2022-09-17T10:50:01;5.50;;;2.70;;
69005;SDS011;56061;51.748;19.620;2022-09-17T10:52:37;6.40;;;2.80;;
69005;SDS011;56061;51.748;19.620;2022-09-17T11:01:28;7.10;;;3.20;;
69005;SDS011;56061;51.748;19.620;2022-09-17T11:10:26;3.40;;;2.00;;
69005;SDS011;56061;51.748;19.620;2022-09-17T11:16:21;4.20;;;2.00;;
69005;SDS011;56061;51.748;19.620;2022-09-17T11:19:18;3.40;;;1.90;;
69005;SDS011;56061;51.748;19.620;2022-09-17T11:25:33;3.60;;;1.90;;
69005;SDS011;56061;51.748;19.620;2022-09-17T11:37:05;4.00;;;1.90;;
69005;SDS011;56061;51.748;19.620;2022-09-17T11:39:57;4.00;;;2.20;;
69005;SDS011;56061;51.748;19.620;2022-09-17T11:42:35;4.10;;;2.20;;
69005;SDS011;56061;51.748;19.620;2022-09-17T11:45:19;6.40;;;2.90;;
69005;SDS011;56061;51.748;19.620;2022-09-17T11:47:59;5.20;;;2.90;;
69005;SDS011;56061;51.748;19.620;2022-09-17T11:50:39;4.50;;;2.40;;
69005;SDS011;56061;51.748;19.620;2022-09-17T11:53:18;5.20;;;2.90;;
69005;SDS011;56061;51.748;19.620;2022-09-17T11:55:58;6.40;;;2.80;;
69005;SDS011;56061;51.748;19.620;2022-09-17T11:58:45;4.50;;;2.10;;
69005;SDS011;56061;51.748;19.620;2022-09-17T12:07:39;6.50;;;2.40;;
69005;SDS011;56061;51.748;19.620;2022-09-17T12:19:24;5.30;;;2.40;;
69005;SDS011;56061;51.748;19.620;2022-09-17T12:22:09;5.30;;;2.70;;
69005;SDS011;56061;51.748;19.620;2022-09-17T12:24:42;7.20;;;3.10;;
69005;SDS011;56061;51.748;19.620;2022-09-17T12:27:31;5.90;;;2.90;;
69005;SDS011;56061;51.748;19.620;2022-09-17T12:39:12;7.10;;;3.40;;
69005;SDS011;56061;51.748;19.620;2022-09-17T12:51:22;5.10;;;2.90;;
69005;SDS011;56061;51.748;19.620;2022-09-17T12:54:52;5.50;;;3.30;;
69005;SDS011;56061;51.748;19.620;2022-09-17T12:57:35;6.20;;;3.40;;
69005;SDS011;56061;51.748;19.620;2022-09-17T13:00:15;7.80;;;3.70;;
69005;SDS011;56061;51.748;19.620;2022-09-17T13:08:52;8.20;;;4.20;;
69005;SDS011;56061;51.748;19.620;2022-09-17T13:11:47;9.50;;;4.70;;
69005;SDS011;56061;51.748;19.620;2022-09-17T13:17:06;6.40;;;3.70;;
69005;SDS011;56061;51.748;19.620;2022-09-17T13:20:14;5.30;;;3.20;;
69005;SDS011;56061;51.748;19.620;2022-09-17T13:22:49;6.30;;;3.40;;
69005;SDS011;56061;51.748;19.620;2022-09-17T13:25:19;7.40;;;3.50;;
69005;SDS011;56061;51.748;19.620;2022-09-17T13:27:48;6.20;;;3.70;;
69005;SDS011;56061;51.748;19.620;2022-09-17T13:30:17;7.70;;;3.90;;
69005;SDS011;56061;51.748;19.620;2022-09-17T13:32:46;6.40;;;3.80;;
69005;SDS011;56061;51.748;19.620;2022-09-17T13:37:42;7.30;;;3.70;;
69005;SDS011;56061;51.748;19.620;2022-09-17T13:40:35;5.90;;;3.40;;
69005;SDS011;56061;51.748;19.620;2022-09-17T13:45:29;6.00;;;3.40;;
69005;SDS011;56061;51.748;19.620;2022-09-17T13:48:03;6.50;;;3.20;;
69005;SDS011;56061;51.748;19.620;2022-09-17T13:50:36;6.30;;;3.10;;
69005;SDS011;56061;51.748;19.620;2022-09-17T13:53:16;7.80;;;3.30;;
69005;SDS011;56061;51.748;19.620;2022-09-17T13:55:48;7.10;;;3.50;;
69005;SDS011;56061;51.748;19.620;2022-09-17T14:00:59;6.70;;;3.90;;
69005;SDS011;56061;51.748;19.620;2022-09-17T14:22:24;9.50;;;4.20;;
69005;SDS011;56061;51.748;19.620;2022-09-17T14:24:52;7.10;;;3.80;;
69005;SDS011;56061;51.748;19.620;2022-09-17T14:27:46;8.50;;;4.10;;
69005;SDS011;56061;51.748;19.620;2022-09-17T14:30:28;12.40;;;6.00;;
69005;SDS011;56061;51.748;19.620;2022-09-17T14:35:41;9.50;;;4.90;;
69005;SDS011;56061;51.748;19.620;2022-09-17T14:38:26;10.00;;;4.60;;
69005;SDS011;56061;51.748;19.620;2022-09-17T14:40:59;7.70;;;4.30;;
69005;SDS011;56061;51.748;19.620;2022-09-17T14:46:30;6.20;;;3.90;;
69005;SDS011;56061;51.748;19.620;2022-09-17T14:49:24;9.10;;;5.10;;
69005;SDS011;56061;51.748;19.620;2022-09-17T14:51:56;9.00;;;4.40;;
69005;SDS011;56061;51.748;19.620;2022-09-17T14:59:45;11.40;;;5.50;;
69005;SDS011;56061;51.748;19.620;2022-09-17T15:02:36;12.60;;;5.70;;
69005;SDS011;56061;51.748;19.620;2022-09-17T15:10:44;16.30;;;7.80;;
69005;SDS011;56061;51.748;19.620;2022-09-17T15:16:11;10.90;;;6.70;;
69005;SDS011;56061;51.748;19.620;2022-09-17T15:18:47;13.50;;;7.20;;
69005;SDS011;56061;51.748;19.620;2022-09-17T15:24:32;24.10;;;14.30;;
69005;SDS011;56061;51.748;19.620;2022-09-17T15:27:02;20.10;;;11.00;;
69005;SDS011;56061;51.748;19.620;2022-09-17T15:29:38;13.90;;;7.10;;
69005;SDS011;56061;51.748;19.620;2022-09-17T15:32:11;11.20;;;6.60;;
69005;SDS011;56061;51.748;19.620;2022-09-17T15:34:40;9.20;;;5.40;;
69005;SDS011;56061;51.748;19.620;2022-09-17T15:37:19;10.10;;;5.60;;
69005;SDS011;56061;51.748;19.620;2022-09-17T15:39:51;16.00;;;11.10;;
69005;SDS011;56061;51.748;19.620;2022-09-17T15:42:26;19.40;;;14.20;;
69005;SDS011;56061;51.748;19.620;2022-09-17T15:45:21;10.80;;;6.60;;
69005;SDS011;56061;51.748;19.620;2022-09-17T15:47:58;9.90;;;5.20;;
69005;SDS011;56061;51.748;19.620;2022-09-17T15:50:28;10.50;;;5.70;;
69005;SDS011;56061;51.748;19.620;2022-09-17T15:53:20;19.40;;;17.30;;
69005;SDS011;56061;51.748;19.620;2022-09-17T15:56:08;13.70;;;8.50;;
69005;SDS011;56061;51.748;19.620;2022-09-17T16:08:45;11.10;;;5.70;;
69005;SDS011;56061;51.748;19.620;2022-09-17T16:11:17;11.60;;;5.30;;
69005;SDS011;56061;51.748;19.620;2022-09-17T16:13:46;11.40;;;5.10;;
69005;SDS011;56061;51.748;19.620;2022-09-17T16:16:28;32.50;;;15.50;;
69005;SDS011;56061;51.748;19.620;2022-09-17T16:19:02;56.90;;;24.70;;
69005;SDS011;56061;51.748;19.620;2022-09-17T16:21:31;59.10;;;27.70;;
69005;SDS011;56061;51.748;19.620;2022-09-17T16:23:57;25.50;;;12.90;;
69005;SDS011;56061;51.748;19.620;2022-09-17T16:26:28;24.90;;;13.90;;
69005;SDS011;56061;51.748;19.620;2022-09-17T16:29:01;29.70;;;15.20;;
69005;SDS011;56061;51.748;19.620;2022-09-17T16:31:30;27.20;;;14.20;;
69005;SDS011;56061;51.748;19.620;2022-09-17T16:33:58;24.00;;;14.20;;
69005;SDS011;56061;51.748;19.620;2022-09-17T16:36:26;48.90;;;24.80;;
69005;SDS011;56061;51.748;19.620;2022-09-17T16:38:52;69.60;;;35.50;;
69005;SDS011;56061;51.748;19.620;2022-09-17T16:41:19;50.30;;;23.30;;
69005;SDS011;56061;51.748;19.620;2022-09-17T16:43:45;39.50;;;21.00;;
69005;SDS011;56061;51.748;19.620;2022-09-17T16:46:12;22.60;;;11.70;;
69005;SDS011;56061;51.748;19.620;2022-09-17T16:48:39;19.10;;;11.30;;
69005;SDS011;56061;51.748;19.620;2022-09-17T16:51:12;20.90;;;10.90;;
69005;SDS011;56061;51.748;19.620;2022-09-17T16:53:39;30.50;;;13.20;;
69005;SDS011;56061;51.748;19.620;2022-09-17T16:56:06;34.80;;;16.10;;
69005;SDS011;56061;51.748;19.620;2022-09-17T16:58:37;47.30;;;19.40;;
69005;SDS011;56061;51.748;19.620;2022-09-17T17:01:09;44.80;;;22.60;;
69005;SDS011;56061;51.748;19.620;2022-09-17T17:03:38;31.00;;;17.30;;
69005;SDS011;56061;51.748;19.620;2022-09-17T17:06:05;24.60;;;13.00;;
69005;SDS011;56061;51.748;19.620;2022-09-17T17:08:33;23.40;;;10.70;;
69005;SDS011;56061;51.748;19.620;2022-09-17T17:10:59;20.90;;;10.00;;
69005;SDS011;56061;51.748;19.620;2022-09-17T17:13:26;27.90;;;12.10;;
69005;SDS011;56061;51.748;19.620;2022-09-17T17:15:53;30.90;;;14.10;;
69005;SDS011;56061;51.748;19.620;2022-09-17T17:18:20;36.00;;;16.20;;
69005;SDS011;56061;51.748;19.620;2022-09-17T17:20:47;36.40;;;17.60;;
69005;SDS011;56061;51.748;19.620;2022-09-17T17:23:14;20.10;;;10.30;;
69005;SDS011;56061;51.748;19.620;2022-09-17T17:25:41;17.00;;;7.40;;
69005;SDS011;56061;51.748;19.620;2022-09-17T17:28:08;12.50;;;6.50;;
69005;SDS011;56061;51.748;19.620;2022-09-17T17:30:35;13.60;;;7.50;;
69005;SDS011;56061;51.748;19.620;2022-09-17T17:33:03;18.50;;;9.50;;
69005;SDS011;56061;51.748;19.620;2022-09-17T17:35:29;41.10;;;30.20;;
69005;SDS011;56061;51.748;19.620;2022-09-17T17:37:56;56.80;;;35.40;;
69005;SDS011;56061;51.748;19.620;2022-09-17T17:40:23;62.00;;;30.10;;
69005;SDS011;56061;51.748;19.620;2022-09-17T17:42:52;66.20;;;28.50;;
69005;SDS011;56061;51.748;19.620;2022-09-17T17:45:19;33.20;;;14.00;;
69005;SDS011;56061;51.748;19.620;2022-09-17T17:47:46;35.00;;;15.70;;
69005;SDS011;56061;51.748;19.620;2022-09-17T17:50:13;26.20;;;11.80;;
69005;SDS011;56061;51.748;19.620;2022-09-17T17:52:40;30.80;;;13.70;;
69005;SDS011;56061;51.748;19.620;2022-09-17T17:55:14;37.50;;;15.40;;
69005;SDS011;56061;51.748;19.620;2022-09-17T17:57:41;34.60;;;15.40;;
69005;SDS011;56061;51.748;19.620;2022-09-17T18:00:08;41.00;;;17.20;;
69005;SDS011;56061;51.748;19.620;2022-09-17T18:02:37;51.90;;;22.50;;
69005;SDS011;56061;51.748;19.620;2022-09-17T18:05:04;123.90;;;67.60;;
69005;SDS011;56061;51.748;19.620;2022-09-17T18:07:31;141.70;;;63.40;;
69005;SDS011;56061;51.748;19.620;2022-09-17T18:09:58;129.90;;;52.50;;
69005;SDS011;56061;51.748;19.620;2022-09-17T18:12:25;131.40;;;58.40;;
69005;SDS011;56061;51.748;19.620;2022-09-17T18:14:52;137.30;;;66.00;;
69005;SDS011;56061;51.748;19.620;2022-09-17T18:17:19;101.80;;;50.50;;